Thunder radar more information blitzortung!


Radar de pluja more information rain snow radar


Visita la nostra xarxa de llocs de meteo:

Template documentation
and downloads

And another site



No particular awareness of the weather is required.    There are no Weather-warnings

Pagina Historial Weather Underground text

Diari Resum Novembre 27, 2017 Unitats:  Imperial    Mètric   Tant
« Previous Dia
SegĂźent Dia »
Diari Setmana Mensual Anual Personalitzada
  Maxima: Minima: Media:
Temperatura: 55.2 °F 35.6 °F 46 °F
Punt de rosada: 37.4 °F 23.2 °F 30.4 °F
Humitat: 67 % 48 % 55 %
Wind Speed: 6.9 mph 0 mph 1.6 mph
RĂ fegues de vent: 6.9 mph - -
Vent:- - South
Pression baro: 30.4 in 30.1 in -
Precipitacions: 0 in    
Historical Graphs
 
 
Dades de taula per Novembre 27, 2017
Temps Temperatura Punt de rosada Pression baro Vent Wind Speed RĂ fegues de vent Humitat Rainfall Rate (Hourly)
00:00 39.9 °F 23.2 °F 30.4 in SE 1.2 mph   51 % 0 in
00:05 39.9 °F 23.2 °F 30.4 in ENE 1.2 mph   51 % 0 in
00:10 39.7 °F 23.2 °F 30.4 in WNW 1.2 mph 1.2 mph 51 % 0 in
00:15 37.4 °F 23.5 °F 30.4 in WSW 2 mph 2 mph 57 % 0 in
00:25 37 °F 23.5 °F 30.4 in WSW 1 mph 2 mph 58 % 0 in
00:35 37.2 °F 24.3 °F 30.4 in Calm   2 mph 59 % 0 in
00:45 36.9 °F 24.3 °F 30.4 in Calm   1 mph 60 % 0 in
00:55 37 °F 24.4 °F 30.4 in Calm   2 mph 60 % 0 in
01:05 36.9 °F 24.3 °F 30.4 in Calm   1 mph 60 % 0 in
01:15 36.7 °F 24.1 °F 30.4 in Calm   1 mph 60 % 0 in
01:25 36.3 °F 23.7 °F 30.4 in NNW 2 mph 2 mph 60 % 0 in
01:35 35.8 °F 23.5 °F 30.4 in WNW 1 mph 2 mph 61 % 0 in
01:45 35.8 °F 23.5 °F 30.4 in ENE 1 mph   61 % 0 in
01:55 35.6 °F 23.5 °F 30.4 in Calm     61 % 0 in
02:05 35.6 °F 23.5 °F 30.4 in Calm   2 mph 61 % 0 in
02:15 36 °F 24.3 °F 30.4 in Calm   2 mph 62 % 0 in
02:25 36.7 °F 25 °F 30.4 in Calm   2 mph 62 % 0 in
02:35 37.4 °F 25.5 °F 30.4 in NNE 1 mph 2 mph 62 % 0 in
02:45 38.5 °F 26.6 °F 30.4 in NE 1 mph   62 % 0 in
02:55 38.7 °F 26.4 °F 30.4 in NE 1 mph 3 mph 61 % 0 in
03:05 39.7 °F 27.3 °F 30.4 in NE 1 mph 1 mph 61 % 0 in
03:15 41 °F 28.2 °F 30.4 in Calm   1 mph 60 % 0 in
03:25 42.1 °F 28.8 °F 30.4 in SE 1 mph 1 mph 59 % 0 in
03:35 41.2 °F 27.5 °F 30.4 in East 2 mph 2 mph 58 % 0 in
03:45 41.2 °F 27.1 °F 30.4 in ENE 2 mph 3 mph 57 % 0 in
03:55 42.1 °F 27.9 °F 30.4 in ENE 2 mph 2 mph 57 % 0 in
04:05 42.4 °F 28.2 °F 30.4 in NE 1 mph 3 mph 57 % 0 in
04:15 42.8 °F 28.2 °F 30.4 in NE 3 mph 4 mph 56 % 0 in
04:25 43.2 °F 28 °F 30.4 in NE 3 mph 4 mph 55 % 0 in
04:35 44.6 °F 29.8 °F 30.4 in NE 1 mph 2 mph 56 % 0 in
10:41 45 °F 29.8 °F 30.4 in ENE 2.3 mph 2.3 mph 55 % 0 in
10:42 45 °F 29.8 °F 30.4 in ENE 2.4 mph 2.4 mph 55 % 0 in
10:46 45.3 °F 30 °F 30.4 in SW 1.2 mph 1.2 mph 55 % 0 in
10:51 46 °F 30.7 °F 30.4 in ENE 2.3 mph 2.3 mph 55 % 0 in
10:56 46.4 °F 30.6 °F 30.4 in ESE 2.3 mph 2.3 mph 54 % 0 in
11:01 46.6 °F 30.7 °F 30.4 in East 2.3 mph 2.3 mph 54 % 0 in
11:06 47.1 °F 31.3 °F 30.4 in ESE 2.3 mph 2.3 mph 54 % 0 in
11:11 47.5 °F 31.3 °F 30.4 in SW 2.3 mph 2.3 mph 53 % 0 in
11:16 48 °F 32.2 °F 30.4 in East 1.2 mph 1.2 mph 54 % 0 in
11:21 48 °F 31.6 °F 30.4 in ENE 2.3 mph 2.3 mph 53 % 0 in
11:26 48.2 °F 31.8 °F 30.4 in SE 1.2 mph 1.2 mph 53 % 0 in
11:31 49.3 °F 32.9 °F 30.4 in South 1.4 mph   53 % 0 in
11:36 49.5 °F 33.1 °F 30.4 in South 2.4 mph 2.4 mph 53 % 0 in
11:41 49.3 °F 32.9 °F 30.4 in SSE 1.2 mph 1.2 mph 53 % 0 in
11:46 49.1 °F 32.7 °F 30.4 in NNE 2.3 mph 2.3 mph 53 % 0 in
11:51 49.1 °F 32.7 °F 30.4 in ESE 2.3 mph 2.3 mph 53 % 0 in
11:57 49.3 °F 32.4 °F 30.4 in South 2.3 mph   52 % 0 in
12:02 50.7 °F 34.2 °F 30.4 in South 1.2 mph   53 % 0 in
12:07 50.4 °F 34 °F 30.4 in NNW 2.3 mph 2.3 mph 53 % 0 in
12:12 51.3 °F 34.7 °F 30.4 in ENE 1.4 mph   53 % 0 in
12:17 50.9 °F 34 °F 30.4 in WNW 2.3 mph 2.3 mph 52 % 0 in
12:22 51.3 °F 34.2 °F 30.4 in East 2.3 mph 2.3 mph 52 % 0 in
12:27 51.1 °F 34.2 °F 30.4 in East 3.5 mph 3.5 mph 52 % 0 in
12:32 51.1 °F 34.2 °F 30.4 in NE 4.6 mph 4.6 mph 52 % 0 in
12:42 51.3 °F 34.2 °F 30.4 in WSW 2.3 mph 2.3 mph 52 % 0 in
12:47 52.3 °F 35.2 °F 30.4 in ENE 3.1 mph 3.1 mph 52 % 0 in
12:52 52.2 °F 35.1 °F 30.4 in NE 3.5 mph 3.5 mph 52 % 0 in
12:57 52.3 °F 35.2 °F 30.4 in NNW 3.5 mph 3.5 mph 52 % 0 in
13:02 53.1 °F 36 °F 30.4 in NW 4.6 mph 4.6 mph 52 % 0 in
13:07 54 °F 36.7 °F 30.4 in SW 6.9 mph 6.9 mph 52 % 0 in
13:12 54 °F 36.1 °F 30.4 in WSW 2.6 mph 2.6 mph 51 % 0 in
13:17 54.5 °F 36.7 °F 30.4 in WSW 4 mph 4 mph 51 % 0 in
13:22 54.5 °F 36.7 °F 30.4 in WSW 4.6 mph 4.6 mph 51 % 0 in
13:27 54.9 °F 37 °F 30.4 in WSW 2.3 mph 2.3 mph 51 % 0 in
13:32 55.2 °F 37.4 °F 30.4 in SW 6.2 mph 6.2 mph 51 % 0 in
13:37 54.9 °F 37 °F 30.4 in WSW 4.9 mph 4.9 mph 51 % 0 in
13:42 54.9 °F 36.7 °F 30.4 in West 2.4 mph 2.4 mph 50 % 0 in
13:47 54.9 °F 36.7 °F 30.4 in SSW 6 mph 6 mph 50 % 0 in
13:57 54.1 °F 35.4 °F 30.4 in SW 4.6 mph 4.6 mph 49 % 0 in
14:02 54 °F 35.2 °F 30.4 in West 4.6 mph 4.6 mph 49 % 0 in
14:07 54 °F 35.2 °F 30.4 in SSW 3.5 mph 3.5 mph 49 % 0 in
14:08 54 °F 35.2 °F 30.4 in SW 3.5 mph 3.5 mph 49 % 0 in
14:13 53.8 °F 35.1 °F 30.4 in WSW 4 mph 4 mph 49 % 0 in
14:18 53.8 °F 35.1 °F 30.4 in WSW 4 mph 4 mph 49 % 0 in
14:23 53.8 °F 35.1 °F 30.4 in WSW 2.3 mph 2.3 mph 49 % 0 in
14:28 54.1 °F 35.4 °F 30.4 in SSW 3.5 mph 3.5 mph 49 % 0 in
14:33 54.3 °F 35.4 °F 30.4 in WSW 3.5 mph 3.5 mph 49 % 0 in
14:38 54.5 °F 35.8 °F 30.4 in WSW 3.5 mph 3.5 mph 49 % 0 in
14:43 54.5 °F 35.8 °F 30.4 in SW 3.1 mph 3.1 mph 49 % 0 in
14:53 54.5 °F 35.8 °F 30.4 in SSW 4.6 mph 4.6 mph 49 % 0 in
14:58 54.9 °F 36 °F 30.4 in SW 1.2 mph 1.2 mph 49 % 0 in
15:03 54.9 °F 36 °F 30.3 in SW 3.5 mph 3.5 mph 49 % 0 in
15:13 54.9 °F 36 °F 30.3 in SW 2.3 mph 2.3 mph 49 % 0 in
15:18 54.5 °F 35.8 °F 30.3 in SSW 4.6 mph 4.6 mph 49 % 0 in
15:23 54.1 °F 34.9 °F 30.3 in SW 2.3 mph 2.3 mph 48 % 0 in
15:28 54.1 °F 34.9 °F 30.3 in SW 2.3 mph 2.3 mph 48 % 0 in
15:33 54.1 °F 34.9 °F 30.3 in SW 2.6 mph   48 % 0 in
15:38 54 °F 34.7 °F 30.3 in SSW 3.5 mph 3.5 mph 48 % 0 in
15:43 53.8 °F 34.5 °F 30.3 in WSW 3.5 mph 3.5 mph 48 % 0 in
15:48 53.6 °F 34.3 °F 30.3 in SW 3.5 mph 3.5 mph 48 % 0 in
15:53 53.2 °F 34 °F 30.3 in SW 3.5 mph 3.5 mph 48 % 0 in
15:58 53.4 °F 34.2 °F 30.3 in WSW 2.3 mph 2.3 mph 48 % 0 in
16:03 53.2 °F 34 °F 30.3 in WSW 1.2 mph   48 % 0 in
16:08 53.2 °F 34 °F 30.3 in Calm     48 % 0 in
16:13 53.1 °F 34 °F 30.3 in Calm     48 % 0 in
16:18 52.9 °F 33.6 °F 30.4 in Calm     48 % 0 in
16:23 52.5 °F 33.4 °F 30.4 in Calm     48 % 0 in
16:28 52.3 °F 33.3 °F 30.4 in Calm     48 % 0 in
16:33 52.2 °F 33.1 °F 30.3 in Calm     48 % 0 in
16:38 52 °F 32.9 °F 30.3 in Calm     48 % 0 in
16:43 52 °F 33.4 °F 30.3 in SW 2.3 mph 2.3 mph 49 % 0 in
16:48 52 °F 33.4 °F 30.3 in Calm     49 % 0 in
16:53 51.8 °F 33.3 °F 30.3 in WSW 1.4 mph 1.4 mph 49 % 0 in
16:58 51.4 °F 32.9 °F 30.3 in WSW 1.2 mph 1.2 mph 49 % 0 in
17:03 51.1 °F 32.5 °F 30.3 in WSW 1.2 mph   49 % 0 in
17:08 50.7 °F 32.2 °F 30.3 in WSW 1.2 mph 1.2 mph 49 % 0 in
17:13 50.5 °F 32.2 °F 30.3 in WSW 1.4 mph 1.4 mph 49 % 0 in
17:15 50.4 °F 31.8 °F 30.3 in WSW 2 mph 2 mph 49 % 0 in
17:20 50.2 °F 31.6 °F 30.3 in WSW 2.3 mph 2.3 mph 49 % 0 in
17:25 49.8 °F 31.5 °F 30.3 in WSW 2.3 mph 2.3 mph 49 % 0 in
17:30 49.5 °F 31.1 °F 30.3 in WSW 1.2 mph 1.2 mph 49 % 0 in
17:35 49.3 °F 30.9 °F 30.3 in WSW 2.3 mph 2.3 mph 49 % 0 in
17:40 49.1 °F 30.7 °F 30.3 in Calm     49 % 0 in
17:45 48.7 °F 30.9 °F 30.3 in Calm     50 % 0 in
17:50 48.6 °F 30.7 °F 30.3 in Calm     50 % 0 in
17:55 48.2 °F 30.4 °F 30.3 in Calm     50 % 0 in
18:00 48 °F 30.2 °F 30.3 in WSW 1.2 mph 1.4 mph 50 % 0 in
18:05 47.8 °F 30 °F 30.3 in West 2.9 mph 2.9 mph 50 % 0 in
18:10 47.8 °F 30 °F 30.3 in WSW 2.4 mph 2.4 mph 50 % 0 in
18:15 47.7 °F 30.4 °F 30.3 in WSW 1.2 mph   51 % 0 in
18:20 47.5 °F 30.2 °F 30.3 in WSW 2.3 mph 2.3 mph 51 % 0 in
18:25 47.3 °F 30 °F 30.3 in Calm     51 % 0 in
18:30 47.1 °F 29.8 °F 30.3 in WSW 1.2 mph   51 % 0 in
18:35 46.8 °F 29.7 °F 30.3 in WSW 1.2 mph   51 % 0 in
18:40 46.6 °F 29.8 °F 30.3 in Calm     52 % 0 in
18:45 46.2 °F 29.5 °F 30.3 in Calm     52 % 0 in
18:50 46 °F 29.5 °F 30.3 in Calm     52 % 0 in
18:55 46 °F 29.5 °F 30.3 in SW 1.4 mph 1.4 mph 52 % 0 in
19:00 45.9 °F 29.7 °F 30.3 in Calm     53 % 0 in
19:05 45.5 °F 29.3 °F 30.3 in Calm     53 % 0 in
19:10 45.7 °F 29.5 °F 30.3 in WSW 1.6 mph   53 % 0 in
19:15 45.7 °F 29.5 °F 30.3 in Calm     53 % 0 in
19:20 45.9 °F 29.7 °F 30.3 in SW 2.3 mph 2.3 mph 53 % 0 in
19:25 45.9 °F 30 °F 30.3 in WSW 1.2 mph   54 % 0 in
19:30 46 °F 30.4 °F 30.3 in WSW 2.3 mph 2.3 mph 54 % 0 in
19:35 45.9 °F 30 °F 30.3 in WSW 2.3 mph 2.3 mph 54 % 0 in
19:40 45.9 °F 30 °F 30.3 in WSW 2.6 mph 2.6 mph 54 % 0 in
19:45 45.9 °F 30 °F 30.3 in SW 2.6 mph 2.6 mph 54 % 0 in
19:50 45.9 °F 30 °F 30.3 in SW 2.3 mph 2.3 mph 54 % 0 in
19:55 45.7 °F 30 °F 30.3 in SW 2.3 mph 2.3 mph 54 % 0 in
20:00 45.7 °F 30 °F 30.3 in SW 3.5 mph 3.5 mph 54 % 0 in
20:05 45.5 °F 30.4 °F 30.3 in SW 1.2 mph 1.2 mph 55 % 0 in
20:10 45.5 °F 30.4 °F 30.3 in SW 2.3 mph 2.3 mph 55 % 0 in
20:15 45.3 °F 30 °F 30.3 in SW 1.2 mph   55 % 0 in
20:20 45.1 °F 29.8 °F 30.3 in SW 1.2 mph 1.2 mph 55 % 0 in
20:25 45 °F 30.2 °F 30.3 in Calm     56 % 0 in
20:30 44.8 °F 30 °F 30.3 in SW 0.9 mph   56 % 0 in
20:35 44.6 °F 29.8 °F 30.3 in Calm     56 % 0 in
20:40 44.4 °F 29.1 °F 30.3 in Calm     55 % 0 in
20:45 44.2 °F 29.1 °F 30.3 in Calm     55 % 0 in
20:50 44.2 °F 29.1 °F 30.3 in Calm     55 % 0 in
20:55 44.1 °F 28.9 °F 30.3 in ENE 2.3 mph 2.3 mph 55 % 0 in
21:00 43.7 °F 28.9 °F 30.3 in ENE 1.2 mph   56 % 0 in
21:05 43.3 °F 28.8 °F 30.3 in Calm     56 % 0 in
21:10 43.3 °F 29.1 °F 30.3 in Calm     57 % 0 in
21:15 43 °F 28.8 °F 30.3 in Calm     57 % 0 in
21:20 42.8 °F 28.6 °F 30.3 in SW 1.2 mph   57 % 0 in
21:25 42.4 °F 28.2 °F 30.3 in Calm     57 % 0 in
21:30 42.4 °F 28.2 °F 30.2 in SE 1.4 mph   57 % 0 in
21:35 42.3 °F 28.6 °F 30.2 in Calm     58 % 0 in
21:40 42.1 °F 28.4 °F 30.2 in South 2.3 mph   58 % 0 in
21:45 41.9 °F 28.2 °F 30.2 in WSW 1.2 mph 1.2 mph 58 % 0 in
21:50 41.7 °F 28 °F 30.2 in Calm     58 % 0 in
21:55 41.5 °F 27.9 °F 30.2 in WSW 1.2 mph   58 % 0 in
22:00 41.4 °F 27.7 °F 30.2 in SW 1.2 mph 1.2 mph 58 % 0 in
22:05 41.2 °F 27.5 °F 30.2 in Calm     58 % 0 in
22:10 41.2 °F 27.5 °F 30.2 in WSW 2.3 mph 2.3 mph 58 % 0 in
22:15 41.2 °F 27.5 °F 30.2 in WSW 1.4 mph   58 % 0 in
22:20 41.2 °F 27.9 °F 30.2 in Calm     59 % 0 in
22:25 41.2 °F 28.2 °F 30.2 in Calm     60 % 0 in
22:30 41.2 °F 28.2 °F 30.2 in Calm     60 % 0 in
22:33 41.2 °F 28.2 °F 30.2 in Calm     60 % 0 in
22:35 36.9 °F 27 °F 30.1 in NW 1 mph 2 mph 67 % 0 in
22:38 41.2 °F 28.2 °F 30.2 in Calm     60 % 0 in
22:43 41.2 °F 28.2 °F 30.2 in Calm     60 % 0 in
22:45 36.7 °F 26.8 °F 30.1 in Calm   1 mph 67 % 0 in
22:48 41.2 °F 28.2 °F 30.2 in NNE 2.3 mph 2.3 mph 60 % 0 in
22:53 41 °F 28.6 °F 30.2 in NNE 1.2 mph   61 % 0 in
22:55 36.7 °F 26.8 °F 30.1 in Calm     67 % 0 in
22:58 41 °F 28.6 °F 30.2 in NE 2.3 mph 2.3 mph 61 % 0 in
23:03 40.8 °F 28.4 °F 30.2 in NE 2.3 mph 2.3 mph 61 % 0 in
23:05 36.5 °F 26.6 °F 30.1 in Calm     67 % 0 in
23:08 40.8 °F 28.4 °F 30.2 in NE 1.2 mph   61 % 0 in
23:13 40.6 °F 28.2 °F 30.2 in East 2.3 mph 2.3 mph 61 % 0 in
23:15 36.3 °F 26.4 °F 30.1 in NNE 1 mph 1 mph 67 % 0 in
23:18 40.6 °F 28.2 °F 30.2 in Calm     61 % 0 in
23:23 40.5 °F 28 °F 30.2 in Calm     61 % 0 in
23:25 36.3 °F 26.4 °F 30.1 in Calm   1 mph 67 % 0 in
23:28 40.3 °F 27.9 °F 30.2 in SW 1.2 mph 1.2 mph 61 % 0 in
23:33 40.1 °F 27.7 °F 30.2 in SW 1.2 mph 1.2 mph 61 % 0 in
23:35 36.3 °F 26.4 °F 30.1 in Calm   2 mph 67 % 0 in
23:38 39.9 °F 27.5 °F 30.2 in SW 1.2 mph   61 % 0 in
23:43 39.9 °F 27.5 °F 30.2 in SW 2.3 mph 2.3 mph 61 % 0 in
23:45 36.1 °F 26.2 °F 30.1 in Calm   2 mph 67 % 0 in
23:48 39.9 °F 27.5 °F 30.2 in SW 1.2 mph   61 % 0 in
23:53 39.7 °F 27.3 °F 30.2 in Calm     61 % 0 in
23:55 36 °F 26.1 °F 30.1 in WSW 1 mph 2 mph 67 % 0 in
23:58 39.7 °F 27.9 °F 30.2 in Calm     62 % 0 in
Meteo Sesrovires
Elogis d' Weather Underground - 3.5 mb

Guio original per  Jim McMurry - jmcmurry@mwt.net Adaptat per a la plantilla per  Wim van der Kuil - Leuven-Template.eu

Trobareu la nostra informacio del temps tambe a:

Weather Underground

AWEKAS